sensor_id;sensor_type;location;lat;lon;timestamp;P1;durP1;ratioP1;P2;durP2;ratioP2
27412;SDS011;14871;52.702;5.230;2022-12-29T00:01:30;6.70;;;6.00;;
27412;SDS011;14871;52.702;5.230;2022-12-29T00:03:56;7.63;;;5.88;;
27412;SDS011;14871;52.702;5.230;2022-12-29T00:06:22;5.80;;;5.30;;
27412;SDS011;14871;52.702;5.230;2022-12-29T00:08:48;6.38;;;5.78;;
27412;SDS011;14871;52.702;5.230;2022-12-29T00:11:18;6.35;;;5.43;;
27412;SDS011;14871;52.702;5.230;2022-12-29T00:13:45;7.50;;;6.00;;
27412;SDS011;14871;52.702;5.230;2022-12-29T00:16:30;6.63;;;5.68;;
27412;SDS011;14871;52.702;5.230;2022-12-29T00:18:57;5.50;;;5.05;;
27412;SDS011;14871;52.702;5.230;2022-12-29T00:21:23;6.25;;;4.38;;
27412;SDS011;14871;52.702;5.230;2022-12-29T00:24:13;7.22;;;5.88;;
27412;SDS011;14871;52.702;5.230;2022-12-29T00:27:07;7.03;;;5.63;;
27412;SDS011;14871;52.702;5.230;2022-12-29T00:29:54;6.32;;;4.88;;
27412;SDS011;14871;52.702;5.230;2022-12-29T00:32:38;5.68;;;5.07;;
27412;SDS011;14871;52.702;5.230;2022-12-29T00:35:33;5.72;;;4.85;;
27412;SDS011;14871;52.702;5.230;2022-12-29T00:38:08;7.78;;;5.72;;
27412;SDS011;14871;52.702;5.230;2022-12-29T00:40:53;6.40;;;5.80;;
27412;SDS011;14871;52.702;5.230;2022-12-29T00:43:38;5.95;;;5.15;;
27412;SDS011;14871;52.702;5.230;2022-12-29T00:46:22;6.03;;;5.53;;
27412;SDS011;14871;52.702;5.230;2022-12-29T00:48:47;6.43;;;5.22;;
27412;SDS011;14871;52.702;5.230;2022-12-29T00:51:31;5.82;;;5.28;;
27412;SDS011;14871;52.702;5.230;2022-12-29T00:53:57;7.82;;;5.50;;
27412;SDS011;14871;52.702;5.230;2022-12-29T00:56:22;6.88;;;5.18;;
27412;SDS011;14871;52.702;5.230;2022-12-29T00:58:48;7.25;;;4.68;;
27412;SDS011;14871;52.702;5.230;2022-12-29T01:01:14;8.90;;;5.32;;
27412;SDS011;14871;52.702;5.230;2022-12-29T01:03:40;6.82;;;4.20;;
27412;SDS011;14871;52.702;5.230;2022-12-29T01:06:06;8.40;;;5.80;;
27412;SDS011;14871;52.702;5.230;2022-12-29T01:08:33;5.25;;;4.35;;
27412;SDS011;14871;52.702;5.230;2022-12-29T01:13:25;7.32;;;4.40;;
27412;SDS011;14871;52.702;5.230;2022-12-29T01:15:51;5.22;;;3.90;;
27412;SDS011;14871;52.702;5.230;2022-12-29T01:18:17;6.63;;;4.50;;
27412;SDS011;14871;52.702;5.230;2022-12-29T01:20:43;4.55;;;4.15;;
27412;SDS011;14871;52.702;5.230;2022-12-29T01:23:08;5.85;;;4.30;;
27412;SDS011;14871;52.702;5.230;2022-12-29T01:25:34;6.13;;;3.88;;
27412;SDS011;14871;52.702;5.230;2022-12-29T01:28:00;4.30;;;3.30;;
27412;SDS011;14871;52.702;5.230;2022-12-29T01:30:25;3.55;;;3.05;;
27412;SDS011;14871;52.702;5.230;2022-12-29T01:32:51;3.30;;;2.88;;
27412;SDS011;14871;52.702;5.230;2022-12-29T01:35:16;3.85;;;2.95;;
27412;SDS011;14871;52.702;5.230;2022-12-29T01:37:42;3.50;;;2.60;;
27412;SDS011;14871;52.702;5.230;2022-12-29T01:40:08;3.33;;;2.50;;
27412;SDS011;14871;52.702;5.230;2022-12-29T01:42:34;4.00;;;2.47;;
27412;SDS011;14871;52.702;5.230;2022-12-29T01:45:00;2.92;;;2.38;;
27412;SDS011;14871;52.702;5.230;2022-12-29T01:48:00;3.20;;;2.00;;
27412;SDS011;14871;52.702;5.230;2022-12-29T01:52:56;3.85;;;2.45;;
27412;SDS011;14871;52.702;5.230;2022-12-29T01:55:22;4.82;;;2.20;;
27412;SDS011;14871;52.702;5.230;2022-12-29T01:57:49;3.38;;;2.67;;
27412;SDS011;14871;52.702;5.230;2022-12-29T02:00:18;4.70;;;2.50;;
27412;SDS011;14871;52.702;5.230;2022-12-29T02:02:45;4.10;;;2.30;;
27412;SDS011;14871;52.702;5.230;2022-12-29T02:05:31;2.75;;;1.85;;
27412;SDS011;14871;52.702;5.230;2022-12-29T02:08:02;2.40;;;1.92;;
27412;SDS011;14871;52.702;5.230;2022-12-29T02:10:29;3.88;;;1.92;;
27412;SDS011;14871;52.702;5.230;2022-12-29T02:12:57;4.57;;;1.67;;
27412;SDS011;14871;52.702;5.230;2022-12-29T02:15:27;5.88;;;1.85;;
27412;SDS011;14871;52.702;5.230;2022-12-29T02:18:09;5.65;;;2.28;;
27412;SDS011;14871;52.702;5.230;2022-12-29T02:29:21;4.70;;;1.77;;
27412;SDS011;14871;52.702;5.230;2022-12-29T02:40:06;6.18;;;1.52;;
27412;SDS011;14871;52.702;5.230;2022-12-29T02:42:51;4.38;;;1.63;;
27412;SDS011;14871;52.702;5.230;2022-12-29T02:45:32;7.07;;;1.48;;
27412;SDS011;14871;52.702;5.230;2022-12-29T02:48:23;5.22;;;1.17;;
27412;SDS011;14871;52.702;5.230;2022-12-29T02:53:34;3.58;;;1.33;;
27412;SDS011;14871;52.702;5.230;2022-12-29T02:56:19;4.28;;;1.05;;
27412;SDS011;14871;52.702;5.230;2022-12-29T02:58:45;6.68;;;1.45;;
27412;SDS011;14871;52.702;5.230;2022-12-29T03:01:16;7.18;;;1.63;;
27412;SDS011;14871;52.702;5.230;2022-12-29T03:04:10;4.32;;;1.20;;
27412;SDS011;14871;52.702;5.230;2022-12-29T03:06:54;5.05;;;1.55;;
27412;SDS011;14871;52.702;5.230;2022-12-29T03:09:45;4.83;;;1.27;;
27412;SDS011;14871;52.702;5.230;2022-12-29T03:12:30;1.85;;;0.95;;
27412;SDS011;14871;52.702;5.230;2022-12-29T03:15:21;7.70;;;1.15;;
27412;SDS011;14871;52.702;5.230;2022-12-29T03:18:10;4.90;;;0.95;;
27412;SDS011;14871;52.702;5.230;2022-12-29T03:20:42;7.82;;;0.90;;
27412;SDS011;14871;52.702;5.230;2022-12-29T03:23:15;6.47;;;1.55;;
27412;SDS011;14871;52.702;5.230;2022-12-29T03:25:44;6.30;;;1.63;;
27412;SDS011;14871;52.702;5.230;2022-12-29T03:28:14;5.03;;;1.02;;
27412;SDS011;14871;52.702;5.230;2022-12-29T03:30:45;8.63;;;1.23;;
27412;SDS011;14871;52.702;5.230;2022-12-29T03:33:13;9.38;;;1.77;;
27412;SDS011;14871;52.702;5.230;2022-12-29T03:35:42;10.55;;;1.85;;
27412;SDS011;14871;52.702;5.230;2022-12-29T03:40:50;12.48;;;1.70;;
27412;SDS011;14871;52.702;5.230;2022-12-29T03:43:20;11.95;;;2.25;;
27412;SDS011;14871;52.702;5.230;2022-12-29T03:45:46;11.55;;;1.88;;
27412;SDS011;14871;52.702;5.230;2022-12-29T03:48:12;12.48;;;2.50;;
27412;SDS011;14871;52.702;5.230;2022-12-29T03:50:38;14.43;;;2.40;;
27412;SDS011;14871;52.702;5.230;2022-12-29T03:53:03;12.45;;;3.92;;
27412;SDS011;14871;52.702;5.230;2022-12-29T03:55:29;10.75;;;1.95;;
27412;SDS011;14871;52.702;5.230;2022-12-29T03:57:54;9.93;;;1.80;;
27412;SDS011;14871;52.702;5.230;2022-12-29T04:00:20;15.27;;;2.88;;
27412;SDS011;14871;52.702;5.230;2022-12-29T04:02:46;15.00;;;2.15;;
27412;SDS011;14871;52.702;5.230;2022-12-29T04:05:12;12.55;;;2.08;;
27412;SDS011;14871;52.702;5.230;2022-12-29T04:07:37;16.58;;;3.10;;
27412;SDS011;14871;52.702;5.230;2022-12-29T04:10:03;13.60;;;2.15;;
27412;SDS011;14871;52.702;5.230;2022-12-29T04:12:29;13.77;;;2.42;;
27412;SDS011;14871;52.702;5.230;2022-12-29T04:14:54;13.27;;;2.63;;
27412;SDS011;14871;52.702;5.230;2022-12-29T04:17:20;15.77;;;2.88;;
27412;SDS011;14871;52.702;5.230;2022-12-29T04:19:46;21.65;;;3.90;;
27412;SDS011;14871;52.702;5.230;2022-12-29T04:22:11;15.82;;;2.70;;
27412;SDS011;14871;52.702;5.230;2022-12-29T04:24:37;13.13;;;2.53;;
27412;SDS011;14871;52.702;5.230;2022-12-29T04:27:03;11.77;;;2.38;;
27412;SDS011;14871;52.702;5.230;2022-12-29T04:29:28;12.85;;;2.40;;
27412;SDS011;14871;52.702;5.230;2022-12-29T04:31:54;15.50;;;2.55;;
27412;SDS011;14871;52.702;5.230;2022-12-29T04:34:19;14.23;;;2.92;;
27412;SDS011;14871;52.702;5.230;2022-12-29T04:36:45;22.35;;;2.63;;
27412;SDS011;14871;52.702;5.230;2022-12-29T04:39:10;9.63;;;1.88;;
27412;SDS011;14871;52.702;5.230;2022-12-29T04:41:36;15.73;;;2.80;;
27412;SDS011;14871;52.702;5.230;2022-12-29T04:44:02;19.27;;;2.92;;
27412;SDS011;14871;52.702;5.230;2022-12-29T04:46:27;12.65;;;1.67;;
27412;SDS011;14871;52.702;5.230;2022-12-29T04:48:53;17.00;;;2.13;;
27412;SDS011;14871;52.702;5.230;2022-12-29T04:51:18;9.50;;;2.45;;
27412;SDS011;14871;52.702;5.230;2022-12-29T04:53:45;5.53;;;1.63;;
27412;SDS011;14871;52.702;5.230;2022-12-29T04:56:11;8.88;;;1.77;;
27412;SDS011;14871;52.702;5.230;2022-12-29T04:58:36;13.30;;;2.78;;
27412;SDS011;14871;52.702;5.230;2022-12-29T05:01:02;10.63;;;2.60;;
27412;SDS011;14871;52.702;5.230;2022-12-29T05:03:28;9.05;;;1.80;;
27412;SDS011;14871;52.702;5.230;2022-12-29T05:05:54;16.83;;;2.42;;
27412;SDS011;14871;52.702;5.230;2022-12-29T05:08:20;16.40;;;2.58;;
27412;SDS011;14871;52.702;5.230;2022-12-29T05:10:46;21.60;;;3.33;;
27412;SDS011;14871;52.702;5.230;2022-12-29T05:13:12;18.40;;;3.10;;
27412;SDS011;14871;52.702;5.230;2022-12-29T05:15:38;14.07;;;2.58;;
27412;SDS011;14871;52.702;5.230;2022-12-29T05:18:03;19.40;;;3.10;;
27412;SDS011;14871;52.702;5.230;2022-12-29T05:20:29;15.88;;;3.03;;
27412;SDS011;14871;52.702;5.230;2022-12-29T05:22:55;17.23;;;2.47;;
27412;SDS011;14871;52.702;5.230;2022-12-29T05:25:20;12.68;;;3.40;;
27412;SDS011;14871;52.702;5.230;2022-12-29T05:27:46;17.05;;;3.05;;
27412;SDS011;14871;52.702;5.230;2022-12-29T05:30:11;23.95;;;4.13;;
27412;SDS011;14871;52.702;5.230;2022-12-29T05:32:37;12.93;;;3.15;;
27412;SDS011;14871;52.702;5.230;2022-12-29T05:35:03;19.13;;;3.38;;
27412;SDS011;14871;52.702;5.230;2022-12-29T05:37:29;20.02;;;3.50;;
27412;SDS011;14871;52.702;5.230;2022-12-29T05:39:54;11.52;;;2.40;;
27412;SDS011;14871;52.702;5.230;2022-12-29T05:42:20;25.92;;;3.40;;
27412;SDS011;14871;52.702;5.230;2022-12-29T05:44:46;18.02;;;2.75;;
27412;SDS011;14871;52.702;5.230;2022-12-29T05:47:14;12.23;;;3.05;;
27412;SDS011;14871;52.702;5.230;2022-12-29T05:49:40;14.48;;;3.70;;
27412;SDS011;14871;52.702;5.230;2022-12-29T05:52:06;18.00;;;3.17;;
27412;SDS011;14871;52.702;5.230;2022-12-29T05:54:31;23.13;;;2.97;;
27412;SDS011;14871;52.702;5.230;2022-12-29T05:56:57;25.90;;;4.07;;
27412;SDS011;14871;52.702;5.230;2022-12-29T05:59:22;16.52;;;3.65;;
27412;SDS011;14871;52.702;5.230;2022-12-29T06:01:48;10.65;;;2.17;;
27412;SDS011;14871;52.702;5.230;2022-12-29T06:04:14;14.07;;;3.58;;
27412;SDS011;14871;52.702;5.230;2022-12-29T06:06:39;12.98;;;2.83;;
27412;SDS011;14871;52.702;5.230;2022-12-29T06:09:05;21.10;;;3.03;;
27412;SDS011;14871;52.702;5.230;2022-12-29T06:11:31;19.95;;;3.13;;
27412;SDS011;14871;52.702;5.230;2022-12-29T06:13:56;15.98;;;2.40;;
27412;SDS011;14871;52.702;5.230;2022-12-29T06:16:22;19.58;;;4.00;;
27412;SDS011;14871;52.702;5.230;2022-12-29T06:18:47;25.73;;;3.35;;
27412;SDS011;14871;52.702;5.230;2022-12-29T06:21:13;15.75;;;4.32;;
27412;SDS011;14871;52.702;5.230;2022-12-29T06:23:38;18.00;;;4.00;;
27412;SDS011;14871;52.702;5.230;2022-12-29T06:26:04;23.33;;;3.53;;
27412;SDS011;14871;52.702;5.230;2022-12-29T06:28:30;22.67;;;3.83;;
27412;SDS011;14871;52.702;5.230;2022-12-29T06:30:55;20.55;;;3.78;;
27412;SDS011;14871;52.702;5.230;2022-12-29T06:33:22;19.33;;;4.07;;
27412;SDS011;14871;52.702;5.230;2022-12-29T06:35:48;20.30;;;3.70;;
27412;SDS011;14871;52.702;5.230;2022-12-29T06:38:13;21.13;;;3.88;;
27412;SDS011;14871;52.702;5.230;2022-12-29T06:40:39;28.75;;;4.10;;
27412;SDS011;14871;52.702;5.230;2022-12-29T06:43:06;24.02;;;3.50;;
27412;SDS011;14871;52.702;5.230;2022-12-29T06:45:32;16.88;;;3.38;;
27412;SDS011;14871;52.702;5.230;2022-12-29T06:47:57;24.08;;;3.97;;
27412;SDS011;14871;52.702;5.230;2022-12-29T06:50:23;16.33;;;2.88;;
27412;SDS011;14871;52.702;5.230;2022-12-29T06:52:49;25.42;;;4.43;;
27412;SDS011;14871;52.702;5.230;2022-12-29T06:55:14;17.67;;;3.00;;
27412;SDS011;14871;52.702;5.230;2022-12-29T06:57:41;16.75;;;3.47;;
27412;SDS011;14871;52.702;5.230;2022-12-29T07:00:07;24.92;;;3.67;;
27412;SDS011;14871;52.702;5.230;2022-12-29T07:02:33;16.10;;;3.53;;
27412;SDS011;14871;52.702;5.230;2022-12-29T07:04:58;16.88;;;3.45;;
27412;SDS011;14871;52.702;5.230;2022-12-29T07:07:24;18.15;;;2.90;;
27412;SDS011;14871;52.702;5.230;2022-12-29T07:09:50;20.13;;;3.70;;
27412;SDS011;14871;52.702;5.230;2022-12-29T07:12:15;19.73;;;3.88;;
27412;SDS011;14871;52.702;5.230;2022-12-29T07:14:41;16.23;;;3.25;;
27412;SDS011;14871;52.702;5.230;2022-12-29T07:17:06;20.85;;;4.25;;
27412;SDS011;14871;52.702;5.230;2022-12-29T07:19:32;20.90;;;3.47;;
27412;SDS011;14871;52.702;5.230;2022-12-29T07:21:58;26.27;;;4.13;;
27412;SDS011;14871;52.702;5.230;2022-12-29T07:24:24;20.42;;;4.22;;
27412;SDS011;14871;52.702;5.230;2022-12-29T07:26:50;19.35;;;3.00;;
27412;SDS011;14871;52.702;5.230;2022-12-29T07:29:16;28.73;;;4.13;;
27412;SDS011;14871;52.702;5.230;2022-12-29T07:31:42;23.13;;;4.13;;
27412;SDS011;14871;52.702;5.230;2022-12-29T07:34:08;24.52;;;3.92;;
27412;SDS011;14871;52.702;5.230;2022-12-29T07:36:34;26.85;;;4.50;;
27412;SDS011;14871;52.702;5.230;2022-12-29T07:38:59;22.60;;;5.05;;
27412;SDS011;14871;52.702;5.230;2022-12-29T07:41:25;28.08;;;4.63;;
27412;SDS011;14871;52.702;5.230;2022-12-29T07:43:51;25.95;;;5.05;;
27412;SDS011;14871;52.702;5.230;2022-12-29T07:46:16;30.52;;;5.10;;
27412;SDS011;14871;52.702;5.230;2022-12-29T07:48:42;28.25;;;4.90;;
27412;SDS011;14871;52.702;5.230;2022-12-29T07:51:07;25.80;;;4.43;;
27412;SDS011;14871;52.702;5.230;2022-12-29T07:53:33;22.42;;;4.45;;
27412;SDS011;14871;52.702;5.230;2022-12-29T07:55:59;23.70;;;5.03;;
27412;SDS011;14871;52.702;5.230;2022-12-29T07:58:24;22.38;;;4.32;;
27412;SDS011;14871;52.702;5.230;2022-12-29T08:00:54;25.40;;;5.53;;
27412;SDS011;14871;52.702;5.230;2022-12-29T08:03:20;24.40;;;4.57;;
27412;SDS011;14871;52.702;5.230;2022-12-29T08:05:46;18.92;;;4.30;;
27412;SDS011;14871;52.702;5.230;2022-12-29T08:08:11;25.27;;;4.30;;
27412;SDS011;14871;52.702;5.230;2022-12-29T08:10:37;22.70;;;3.65;;
27412;SDS011;14871;52.702;5.230;2022-12-29T08:13:03;29.48;;;5.28;;
27412;SDS011;14871;52.702;5.230;2022-12-29T08:15:28;23.15;;;4.25;;
27412;SDS011;14871;52.702;5.230;2022-12-29T08:17:54;30.58;;;4.70;;
27412;SDS011;14871;52.702;5.230;2022-12-29T08:20:19;27.63;;;4.70;;
27412;SDS011;14871;52.702;5.230;2022-12-29T08:22:45;22.02;;;4.63;;
27412;SDS011;14871;52.702;5.230;2022-12-29T08:25:11;25.75;;;5.40;;
27412;SDS011;14871;52.702;5.230;2022-12-29T08:27:36;21.58;;;3.58;;
27412;SDS011;14871;52.702;5.230;2022-12-29T08:30:02;24.42;;;4.90;;
27412;SDS011;14871;52.702;5.230;2022-12-29T08:32:28;25.80;;;4.43;;
27412;SDS011;14871;52.702;5.230;2022-12-29T08:34:54;20.60;;;5.82;;
27412;SDS011;14871;52.702;5.230;2022-12-29T08:37:20;23.10;;;5.05;;
27412;SDS011;14871;52.702;5.230;2022-12-29T08:39:46;18.23;;;3.95;;
27412;SDS011;14871;52.702;5.230;2022-12-29T08:42:12;16.13;;;4.25;;
27412;SDS011;14871;52.702;5.230;2022-12-29T08:44:38;24.92;;;3.97;;
27412;SDS011;14871;52.702;5.230;2022-12-29T08:47:04;26.52;;;4.43;;
27412;SDS011;14871;52.702;5.230;2022-12-29T08:49:29;14.77;;;2.92;;
27412;SDS011;14871;52.702;5.230;2022-12-29T08:51:55;15.77;;;3.47;;
27412;SDS011;14871;52.702;5.230;2022-12-29T08:54:21;23.05;;;3.60;;
27412;SDS011;14871;52.702;5.230;2022-12-29T08:56:46;14.90;;;2.58;;
27412;SDS011;14871;52.702;5.230;2022-12-29T08:59:12;13.07;;;2.67;;
27412;SDS011;14871;52.702;5.230;2022-12-29T09:01:38;15.75;;;3.00;;
27412;SDS011;14871;52.702;5.230;2022-12-29T09:04:05;18.92;;;3.00;;
27412;SDS011;14871;52.702;5.230;2022-12-29T09:06:31;16.67;;;3.28;;
27412;SDS011;14871;52.702;5.230;2022-12-29T09:08:57;24.58;;;3.88;;
27412;SDS011;14871;52.702;5.230;2022-12-29T09:11:23;21.67;;;3.65;;
27412;SDS011;14871;52.702;5.230;2022-12-29T09:13:49;15.75;;;3.03;;
27412;SDS011;14871;52.702;5.230;2022-12-29T09:16:16;15.82;;;3.00;;
27412;SDS011;14871;52.702;5.230;2022-12-29T09:18:42;20.05;;;4.18;;
27412;SDS011;14871;52.702;5.230;2022-12-29T09:21:09;24.08;;;3.97;;
27412;SDS011;14871;52.702;5.230;2022-12-29T09:23:35;13.48;;;3.22;;
27412;SDS011;14871;52.702;5.230;2022-12-29T09:26:02;17.00;;;3.72;;
27412;SDS011;14871;52.702;5.230;2022-12-29T09:28:28;20.60;;;3.97;;
27412;SDS011;14871;52.702;5.230;2022-12-29T09:30:54;23.40;;;4.13;;
27412;SDS011;14871;52.702;5.230;2022-12-29T09:33:20;18.88;;;4.18;;
27412;SDS011;14871;52.702;5.230;2022-12-29T09:35:50;20.45;;;4.53;;
27412;SDS011;14871;52.702;5.230;2022-12-29T09:38:18;20.30;;;4.93;;
27412;SDS011;14871;52.702;5.230;2022-12-29T09:40:46;28.80;;;4.32;;
27412;SDS011;14871;52.702;5.230;2022-12-29T09:45:52;21.27;;;3.60;;
27412;SDS011;14871;52.702;5.230;2022-12-29T09:48:22;17.88;;;3.20;;
27412;SDS011;14871;52.702;5.230;2022-12-29T09:50:52;26.40;;;5.22;;
27412;SDS011;14871;52.702;5.230;2022-12-29T09:53:25;31.55;;;8.35;;
27412;SDS011;14871;52.702;5.230;2022-12-29T09:56:00;32.33;;;6.25;;
27412;SDS011;14871;52.702;5.230;2022-12-29T10:01:07;34.25;;;5.28;;
27412;SDS011;14871;52.702;5.230;2022-12-29T10:03:52;29.92;;;5.57;;
27412;SDS011;14871;52.702;5.230;2022-12-29T10:25:49;45.53;;;8.10;;
27412;SDS011;14871;52.702;5.230;2022-12-29T10:28:22;55.05;;;7.47;;
27412;SDS011;14871;52.702;5.230;2022-12-29T10:31:09;29.00;;;6.00;;
27412;SDS011;14871;52.702;5.230;2022-12-29T10:33:45;44.28;;;6.97;;
27412;SDS011;14871;52.702;5.230;2022-12-29T10:36:17;40.92;;;6.82;;
27412;SDS011;14871;52.702;5.230;2022-12-29T10:38:51;37.50;;;6.13;;
27412;SDS011;14871;52.702;5.230;2022-12-29T10:41:28;40.35;;;6.57;;
27412;SDS011;14871;52.702;5.230;2022-12-29T10:43:59;28.98;;;5.63;;
27412;SDS011;14871;52.702;5.230;2022-12-29T10:46:29;25.52;;;6.03;;
27412;SDS011;14871;52.702;5.230;2022-12-29T10:48:59;29.65;;;5.03;;
27412;SDS011;14871;52.702;5.230;2022-12-29T10:51:30;25.05;;;5.30;;
27412;SDS011;14871;52.702;5.230;2022-12-29T10:54:06;26.17;;;5.57;;
27412;SDS011;14871;52.702;5.230;2022-12-29T10:56:49;18.85;;;3.92;;
27412;SDS011;14871;52.702;5.230;2022-12-29T10:59:31;22.40;;;3.90;;
27412;SDS011;14871;52.702;5.230;2022-12-29T11:02:13;16.55;;;3.28;;
27412;SDS011;14871;52.702;5.230;2022-12-29T11:05:02;25.08;;;3.92;;
27412;SDS011;14871;52.702;5.230;2022-12-29T11:07:35;19.75;;;3.50;;
27412;SDS011;14871;52.702;5.230;2022-12-29T11:12:58;18.10;;;3.78;;
27412;SDS011;14871;52.702;5.230;2022-12-29T11:15:25;17.25;;;3.63;;
27412;SDS011;14871;52.702;5.230;2022-12-29T11:17:57;19.63;;;3.38;;
27412;SDS011;14871;52.702;5.230;2022-12-29T11:22:58;20.48;;;2.92;;
27412;SDS011;14871;52.702;5.230;2022-12-29T11:25:25;13.20;;;2.53;;
27412;SDS011;14871;52.702;5.230;2022-12-29T11:27:55;16.65;;;3.38;;
27412;SDS011;14871;52.702;5.230;2022-12-29T11:30:27;17.30;;;3.30;;
27412;SDS011;14871;52.702;5.230;2022-12-29T11:32:56;17.92;;;2.97;;
27412;SDS011;14871;52.702;5.230;2022-12-29T11:35:29;15.68;;;3.03;;
27412;SDS011;14871;52.702;5.230;2022-12-29T11:37:57;14.73;;;3.08;;
27412;SDS011;14871;52.702;5.230;2022-12-29T11:40:24;11.73;;;2.50;;
27412;SDS011;14871;52.702;5.230;2022-12-29T11:43:18;15.90;;;2.83;;
27412;SDS011;14871;52.702;5.230;2022-12-29T11:45:45;12.77;;;2.45;;
27412;SDS011;14871;52.702;5.230;2022-12-29T11:48:20;9.30;;;1.83;;
27412;SDS011;14871;52.702;5.230;2022-12-29T11:50:50;9.98;;;2.35;;
27412;SDS011;14871;52.702;5.230;2022-12-29T11:55:56;21.63;;;3.38;;
27412;SDS011;14871;52.702;5.230;2022-12-29T11:58:30;14.63;;;3.65;;
27412;SDS011;14871;52.702;5.230;2022-12-29T12:01:02;12.95;;;2.97;;
27412;SDS011;14871;52.702;5.230;2022-12-29T12:03:40;16.42;;;3.13;;
27412;SDS011;14871;52.702;5.230;2022-12-29T12:06:12;8.70;;;2.63;;
27412;SDS011;14871;52.702;5.230;2022-12-29T12:08:43;14.00;;;2.45;;
27412;SDS011;14871;52.702;5.230;2022-12-29T12:11:15;13.55;;;2.63;;
27412;SDS011;14871;52.702;5.230;2022-12-29T12:16:32;11.55;;;2.42;;
27412;SDS011;14871;52.702;5.230;2022-12-29T12:19:20;11.23;;;2.13;;
27412;SDS011;14871;52.702;5.230;2022-12-29T12:22:31;9.95;;;2.53;;
27412;SDS011;14871;52.702;5.230;2022-12-29T12:24:56;9.50;;;1.90;;
27412;SDS011;14871;52.702;5.230;2022-12-29T12:35:11;14.05;;;1.88;;
27412;SDS011;14871;52.702;5.230;2022-12-29T12:38:02;8.75;;;1.95;;
27412;SDS011;14871;52.702;5.230;2022-12-29T13:00:48;13.18;;;2.50;;
27412;SDS011;14871;52.702;5.230;2022-12-29T13:17:40;16.33;;;2.88;;
27412;SDS011;14871;52.702;5.230;2022-12-29T13:28:25;13.73;;;3.67;;
27412;SDS011;14871;52.702;5.230;2022-12-29T13:31:11;11.73;;;3.00;;
27412;SDS011;14871;52.702;5.230;2022-12-29T13:36:37;10.57;;;2.85;;
27412;SDS011;14871;52.702;5.230;2022-12-29T13:41:42;14.43;;;2.80;;
27412;SDS011;14871;52.702;5.230;2022-12-29T13:44:17;18.17;;;3.03;;
27412;SDS011;14871;52.702;5.230;2022-12-29T13:47:11;12.52;;;2.33;;
27412;SDS011;14871;52.702;5.230;2022-12-29T13:49:46;12.18;;;2.75;;
27412;SDS011;14871;52.702;5.230;2022-12-29T14:00:18;12.85;;;2.88;;
27412;SDS011;14871;52.702;5.230;2022-12-29T14:07:43;20.50;;;2.90;;
27412;SDS011;14871;52.702;5.230;2022-12-29T14:13:20;16.30;;;2.95;;
27412;SDS011;14871;52.702;5.230;2022-12-29T14:15:54;12.73;;;3.15;;
27412;SDS011;14871;52.702;5.230;2022-12-29T14:18:26;18.98;;;2.63;;
27412;SDS011;14871;52.702;5.230;2022-12-29T14:20:56;11.10;;;2.50;;
27412;SDS011;14871;52.702;5.230;2022-12-29T14:28:31;13.30;;;3.35;;
27412;SDS011;14871;52.702;5.230;2022-12-29T14:31:03;18.05;;;2.95;;
27412;SDS011;14871;52.702;5.230;2022-12-29T14:33:31;14.85;;;2.70;;
27412;SDS011;14871;52.702;5.230;2022-12-29T14:38:45;12.68;;;2.97;;
27412;SDS011;14871;52.702;5.230;2022-12-29T14:41:15;14.90;;;2.78;;
27412;SDS011;14871;52.702;5.230;2022-12-29T14:44:10;15.40;;;2.58;;
27412;SDS011;14871;52.702;5.230;2022-12-29T14:46:54;17.63;;;3.58;;
27412;SDS011;14871;52.702;5.230;2022-12-29T14:49:27;15.88;;;3.67;;
27412;SDS011;14871;52.702;5.230;2022-12-29T14:52:06;15.18;;;2.70;;
27412;SDS011;14871;52.702;5.230;2022-12-29T14:54:45;17.45;;;2.85;;
27412;SDS011;14871;52.702;5.230;2022-12-29T14:57:18;13.05;;;3.30;;
27412;SDS011;14871;52.702;5.230;2022-12-29T14:59:54;12.50;;;2.30;;
27412;SDS011;14871;52.702;5.230;2022-12-29T15:02:33;52.03;;;4.55;;
27412;SDS011;14871;52.702;5.230;2022-12-29T15:05:03;13.10;;;2.35;;
27412;SDS011;14871;52.702;5.230;2022-12-29T15:07:31;12.07;;;2.17;;
27412;SDS011;14871;52.702;5.230;2022-12-29T15:10:00;16.95;;;3.17;;
27412;SDS011;14871;52.702;5.230;2022-12-29T15:12:41;17.85;;;3.88;;
27412;SDS011;14871;52.702;5.230;2022-12-29T15:15:20;18.38;;;2.83;;
27412;SDS011;14871;52.702;5.230;2022-12-29T15:17:46;19.50;;;2.43;;
27412;SDS011;14871;52.702;5.230;2022-12-29T15:23:03;23.02;;;7.82;;
27412;SDS011;14871;52.702;5.230;2022-12-29T15:33:17;10.75;;;2.50;;
27412;SDS011;14871;52.702;5.230;2022-12-29T15:35:44;15.07;;;3.88;;
27412;SDS011;14871;52.702;5.230;2022-12-29T15:38:19;15.95;;;2.33;;
27412;SDS011;14871;52.702;5.230;2022-12-29T15:40:49;18.30;;;3.70;;
27412;SDS011;14871;52.702;5.230;2022-12-29T15:45:52;13.30;;;2.70;;
27412;SDS011;14871;52.702;5.230;2022-12-29T15:48:21;16.05;;;2.67;;
27412;SDS011;14871;52.702;5.230;2022-12-29T15:50:48;10.95;;;2.58;;
27412;SDS011;14871;52.702;5.230;2022-12-29T15:53:20;18.98;;;2.88;;
27412;SDS011;14871;52.702;5.230;2022-12-29T15:55:53;12.45;;;2.63;;
27412;SDS011;14871;52.702;5.230;2022-12-29T15:58:31;20.73;;;4.30;;
27412;SDS011;14871;52.702;5.230;2022-12-29T16:01:15;11.85;;;3.05;;
27412;SDS011;14871;52.702;5.230;2022-12-29T16:03:47;21.50;;;4.15;;
27412;SDS011;14871;52.702;5.230;2022-12-29T16:06:27;16.27;;;3.40;;
27412;SDS011;14871;52.702;5.230;2022-12-29T16:09:10;22.13;;;4.47;;
27412;SDS011;14871;52.702;5.230;2022-12-29T16:11:45;22.88;;;3.85;;
27412;SDS011;14871;52.702;5.230;2022-12-29T16:14:17;24.30;;;4.22;;
27412;SDS011;14871;52.702;5.230;2022-12-29T16:16:45;27.50;;;3.83;;
27412;SDS011;14871;52.702;5.230;2022-12-29T16:19:14;20.95;;;4.35;;
27412;SDS011;14871;52.702;5.230;2022-12-29T16:21:47;21.73;;;4.93;;
27412;SDS011;14871;52.702;5.230;2022-12-29T16:24:14;18.08;;;3.08;;
27412;SDS011;14871;52.702;5.230;2022-12-29T16:26:51;21.52;;;3.20;;
27412;SDS011;14871;52.702;5.230;2022-12-29T16:29:39;26.90;;;4.50;;
27412;SDS011;14871;52.702;5.230;2022-12-29T16:32:22;20.35;;;3.28;;
27412;SDS011;14871;52.702;5.230;2022-12-29T16:35:07;15.90;;;4.20;;
27412;SDS011;14871;52.702;5.230;2022-12-29T16:37:34;26.88;;;4.18;;
27412;SDS011;14871;52.702;5.230;2022-12-29T16:47:43;19.45;;;4.00;;
27412;SDS011;14871;52.702;5.230;2022-12-29T16:50:11;17.77;;;3.42;;
27412;SDS011;14871;52.702;5.230;2022-12-29T16:52:41;20.48;;;3.83;;
27412;SDS011;14871;52.702;5.230;2022-12-29T16:55:14;25.77;;;7.28;;
27412;SDS011;14871;52.702;5.230;2022-12-29T16:57:41;18.73;;;3.87;;
27412;SDS011;14871;52.702;5.230;2022-12-29T17:00:17;17.10;;;4.00;;
27412;SDS011;14871;52.702;5.230;2022-12-29T17:02:47;18.23;;;3.85;;
27412;SDS011;14871;52.702;5.230;2022-12-29T17:05:15;17.38;;;4.05;;
27412;SDS011;14871;52.702;5.230;2022-12-29T17:07:42;21.75;;;3.88;;
27412;SDS011;14871;52.702;5.230;2022-12-29T17:10:09;13.07;;;2.25;;
27412;SDS011;14871;52.702;5.230;2022-12-29T17:12:34;21.55;;;3.60;;
27412;SDS011;14871;52.702;5.230;2022-12-29T17:15:12;20.90;;;3.22;;
27412;SDS011;14871;52.702;5.230;2022-12-29T17:17:48;19.23;;;3.53;;
27412;SDS011;14871;52.702;5.230;2022-12-29T17:22:42;25.23;;;4.40;;
27412;SDS011;14871;52.702;5.230;2022-12-29T17:25:10;25.45;;;4.05;;
27412;SDS011;14871;52.702;5.230;2022-12-29T17:27:41;18.10;;;4.28;;
27412;SDS011;14871;52.702;5.230;2022-12-29T17:30:14;26.92;;;5.78;;
27412;SDS011;14871;52.702;5.230;2022-12-29T17:32:51;16.77;;;3.53;;
27412;SDS011;14871;52.702;5.230;2022-12-29T17:35:19;23.70;;;4.03;;
27412;SDS011;14871;52.702;5.230;2022-12-29T17:37:46;29.25;;;4.78;;
27412;SDS011;14871;52.702;5.230;2022-12-29T17:40:23;26.45;;;4.47;;
27412;SDS011;14871;52.702;5.230;2022-12-29T17:42:52;19.90;;;4.15;;